^^
Datos históricos de la estación: Murcia-Puente Tocinos
Diario Informe para Febrero 24, 2019 Unidades:  Ingés    Métrico   Ambas
Diario Semanal Mensual Anual
  Máxima: Mínima: Promedio:
Temperatura: 86.9 °F 69.6 °F 77.9 °F
Punto de rocio: 69.4 °F 60.8 °F 64.8 °F
Humedad: 79% 44% 65%
Velocidad viento: 11.2mph 0mph 4.3mph
Racha viento: 21mph - -
Viento- - SE
Presión: 30.1 in 30 in -
Precipitación: 0 in    
 
 
Tabla de datos para Febrero 24, 2019
Hora Temperatura Punto de rocio Presión Viento Velocidad viento Racha viento Humedad Intensidad lluvia(por hora) Nubes
00:04 76.5 °F 67.3 °F 30 in Calm     73% 0 in
00:09 76.5 °F 67.6 °F 30 in Calm     74% 0 in
00:14 76.5 °F 67.6 °F 30 in Calm   2.9 mph 73.9% 0 in
00:19 76.5 °F 67.5 °F 30 in Calm   3.1 mph 73.8% 0 in
00:24 76.3 °F 67.3 °F 30 in Calm   3.5 mph 73.6% 0 in
00:29 76.1 °F 67.1 °F 30 in Calm   2 mph 74% 0 in
00:34 75.9 °F 66.9 °F 30 in Calm   2.3 mph 74% 0 in
00:39 75.7 °F 67.1 °F 30 in Calm   2 mph 74.8% 0 in
00:44 75.6 °F 67.1 °F 30 in Calm     75% 0 in
00:49 75.6 °F 67.3 °F 30 in Calm   3.1 mph 75.3% 0 in
00:54 75.6 °F 67.5 °F 30 in Calm   3.5 mph 76% 0 in
00:59 75.4 °F 67.3 °F 30 in ESE 0.5 mph 3.6 mph 76% 0 in
01:04 75.4 °F 67.3 °F 30 in ESE 1.8 mph 4.6 mph 76.2% 0 in
01:09 75 °F 67.5 °F 30 in SE 1.8 mph 5 mph 77% 0 in
01:14 75 °F 67.3 °F 30 in SE 1.8 mph 4 mph 76.8% 0 in
01:19 74.8 °F 66.9 °F 30 in SE 1.4 mph   76.2% 0 in
01:24 74.8 °F 67.1 °F 30 in Calm     77% 0 in
01:29 74.8 °F 67.1 °F 30 in Calm   2.4 mph 77% 0 in
01:34 74.8 °F 67.1 °F 30 in Calm   2.9 mph 77% 0 in
01:39 74.7 °F 66.9 °F 30 in Este 0.3 mph 3 mph 77% 0 in
01:44 74.5 °F 66.9 °F 30 in Este 1.4 mph 3.1 mph 77% 0 in
01:49 74.5 °F 66.7 °F 30 in ENE 1.4 mph 3.5 mph 77% 0 in
01:54 74.1 °F 66.6 °F 30 in ENE 1.4 mph 3 mph 77% 0 in
01:59 74.1 °F 66.6 °F 30 in ENE 1 mph 2 mph 77.6% 0 in
02:04 74.1 °F 66.7 °F 30 in Calm     78% 0 in
02:09 73.9 °F 66.7 °F 30 in Calm   2.9 mph 77.9% 0 in
02:14 73.9 °F 66.4 °F 30 in Calm   3 mph 77.2% 0 in
02:19 73.8 °F 66.6 °F 30 in Calm   3 mph 78% 0 in
02:24 73.8 °F 66.6 °F 30 in Calm     78% 0 in
02:29 73.8 °F 66.7 °F 30 in Calm   2.4 mph 78.9% 0 in
02:34 73.8 °F 66.7 °F 30 in Calm   4.6 mph 79% 0 in
02:39 73.6 °F 66.7 °F 30 in SE 0.4 mph 5 mph 79% 0 in
02:44 73.6 °F 66.7 °F 30 in SE 1.8 mph 4 mph 79% 0 in
02:49 73.6 °F 66.7 °F 30 in SE 2 mph 4 mph 79% 0 in
02:54 73.6 °F 66.7 °F 30 in SE 2.4 mph 4 mph 79% 0 in
02:59 73.6 °F 66.4 °F 30 in SE 2.2 mph 3.5 mph 78% 0 in
03:04 73.6 °F 66.4 °F 30 in SE 1.8 mph 3 mph 78.3% 0 in
03:09 73.6 °F 66.4 °F 30 in SSE 1.4 mph 3.6 mph 78% 0 in
03:14 73.4 °F 66.2 °F 30 in Calm   4 mph 78% 0 in
03:19 73.2 °F 66 °F 30 in Sur 0.4 mph 4 mph 78% 0 in
03:24 73.2 °F 65.8 °F 30 in Sur 1.8 mph 1 mph 78% 0 in
03:29 73 °F 65.8 °F 30 in Sur 1.4 mph   78.4% 0 in
03:34 72.9 °F 65.8 °F 30 in Calm     78.4% 0 in
03:39 72.9 °F 65.8 °F 30 in Calm   1.8 mph 78.6% 0 in
03:44 72.7 °F 65.5 °F 30 in Calm   4.7 mph 78.1% 0 in
03:49 72.7 °F 64.9 °F 30 in SSO 0.5 mph 5.8 mph 76.5% 0 in
03:54 72.7 °F 64.4 °F 30 in SSO 2 mph 6.2 mph 75.3% 0 in
03:59 72.7 °F 64.2 °F 30 in SSO 2.6 mph 6.9 mph 75% 0 in
04:04 72.7 °F 63.9 °F 30 in SSO 4.3 mph 7 mph 74% 0 in
04:09 72.7 °F 63.9 °F 30 in Sur 4.3 mph 7.4 mph 74% 0 in
04:14 72.7 °F 63.9 °F 30 in Sur 4.3 mph 7 mph 74% 0 in
04:19 72.5 °F 63.7 °F 30 in SSO 4.2 mph 6.9 mph 74% 0 in
04:24 72.3 °F 63.7 °F 30 in SSO 4 mph 7 mph 74% 0 in
04:29 72.3 °F 63.5 °F 30 in SSO 4 mph 6.2 mph 73.8% 0 in
04:34 72.3 °F 63.5 °F 30 in SSO 4 mph 6 mph 73.7% 0 in
04:39 72.3 °F 63.1 °F 30 in Sur 3.9 mph 6 mph 73% 0 in
04:44 72.3 °F 63.1 °F 30 in SSO 3.6 mph 6.9 mph 73% 0 in
04:49 72.3 °F 63.3 °F 30 in SSO 3.7 mph 7 mph 73.2% 0 in
04:54 72.3 °F 63.5 °F 30 in SSO 4 mph 6.4 mph 73.8% 0 in
04:59 72.3 °F 63.3 °F 30 in SO 4 mph 7 mph 73.2% 0 in
05:04 72.3 °F 63.7 °F 30 in SO 4 mph 6 mph 74% 0 in
05:09 72.3 °F 63.7 °F 30 in OSO 3.5 mph 5 mph 74% 0 in
05:14 72.3 °F 63.7 °F 30 in OSO 2 mph 5 mph 74% 0 in
05:19 72.3 °F 63.9 °F 30 in OSO 1.9 mph 3 mph 74.8% 0 in
05:24 72.1 °F 63.9 °F 30 in OSO 1.4 mph   75.4% 0 in
05:29 72 °F 64.2 °F 30 in OSO 1.1 mph 2 mph 76.7% 0 in
05:34 71.8 °F 64 °F 30 in Calm   2.9 mph 77% 0 in
05:39 71.4 °F 63.7 °F 30 in Oeste 0.4 mph 3.5 mph 76.4% 0 in
05:44 71.2 °F 63.7 °F 30 in Oeste 1.8 mph 3 mph 77% 0 in
05:49 71.2 °F 63.7 °F 30 in Oeste 1.4 mph 2 mph 77% 0 in
05:54 71.1 °F 63.5 °F 30 in Calm   3.1 mph 77% 0 in
05:59 70.9 °F 63 °F 30 in OSO 0.4 mph 4 mph 76.1% 0 in
06:04 70.9 °F 62.8 °F 30 in OSO 1.4 mph 5 mph 76% 0 in
06:09 70.7 °F 62.8 °F 30 in OSO 1.6 mph 5 mph 75.9% 0 in
06:14 70.9 °F 62.6 °F 30 in SO 2.4 mph 5 mph 75.2% 0 in
06:19 70.9 °F 62.6 °F 30 in OSO 2.3 mph 4 mph 75% 0 in
06:24 70.9 °F 62.6 °F 30 in OSO 2 mph 4 mph 75% 0 in
06:29 70.9 °F 62.6 °F 30 in OSO 2 mph 4.6 mph 75% 0 in
06:34 70.9 °F 62.6 °F 30 in Oeste 2 mph 5 mph 75% 0 in
06:39 70.9 °F 62.6 °F 30 in Oeste 2 mph 5 mph 75% 0 in
06:44 70.7 °F 62.6 °F 30 in OSO 2 mph 5 mph 75.3% 0 in
06:49 70.7 °F 62.8 °F 30 in OSO 2 mph 5 mph 76% 0 in
06:54 70.7 °F 62.8 °F 30 in OSO 2 mph 5 mph 76% 0 in
06:59 70.7 °F 62.8 °F 30 in SSO 2.1 mph 5 mph 76% 0 in
07:04 70.7 °F 63 °F 30 in SSE 2.4 mph 5.2 mph 76.9% 0 in
07:09 70.3 °F 62.8 °F 30 in Sur 2.7 mph 6.2 mph 77% 0 in
07:14 70.2 °F 62.6 °F 30 in Sur 3.6 mph 6 mph 77% 0 in
07:19 70 °F 62.4 °F 30 in SSO 3.5 mph 5.4 mph 77% 0 in
07:24 69.8 °F 62.2 °F 30 in SSO 3.1 mph 6 mph 77% 0 in
07:29 69.8 °F 62.2 °F 30 in SSO 3.1 mph 5 mph 77% 0 in
07:34 69.6 °F 62.2 °F 30 in SSO 3.1 mph 5.2 mph 77% 0 in
07:39 69.8 °F 62.2 °F 30 in SSO 3 mph 5 mph 76.9% 0 in
07:44 69.8 °F 62.2 °F 30 in SO 2.9 mph 5 mph 77% 0 in
07:49 70 °F 62.1 °F 30 in SO 2.9 mph 5.8 mph 76% 0 in
07:54 70.2 °F 62.2 °F 30 in OSO 2.9 mph 8.1 mph 76% 0 in
07:59 70.2 °F 61.9 °F 30 in OSO 3.4 mph 8.1 mph 75.1% 0 in
08:04 70.2 °F 61.9 °F 30 in OSO 4.7 mph 8 mph 75% 0 in
08:09 70.2 °F 61.9 °F 30 in Oeste 4.5 mph 7 mph 75% 0 in
08:14 70.3 °F 61.9 °F 30 in SO 4 mph 6.9 mph 74.9% 0 in
08:19 70.3 °F 61.5 °F 30 in SSO 3.9 mph 7 mph 73.7% 0 in
08:24 70.2 °F 61 °F 30 in SSO 3.6 mph 6.9 mph 73% 0 in
08:29 70 °F 60.8 °F 30 in Sur 3.9 mph 7 mph 73% 0 in
08:34 70 °F 60.8 °F 30 in SSO 4.7 mph 8.1 mph 72.9% 0 in
08:39 70 °F 60.8 °F 30 in SSO 4.7 mph 8.1 mph 72.9% 0 in
08:44 70.2 °F 61 °F 30 in SSO 4.7 mph 8 mph 73% 0 in
08:49 70.2 °F 61.2 °F 30 in SO 4.5 mph 7 mph 72.7% 0 in
08:54 70.5 °F 61 °F 30 in SO 4 mph 6 mph 72% 0 in
08:59 70.7 °F 61.2 °F 30 in SO 3.9 mph 6.2 mph 71.8% 0 in
09:04 71.1 °F 61.2 °F 30 in SO 3.6 mph 6.2 mph 71% 0 in
09:09 71.2 °F 61.3 °F 30 in SO 3.5 mph 6 mph 70.9% 0 in
09:14 71.6 °F 61.3 °F 30 in SO 3.1 mph 6 mph 70% 0 in
09:19 72 °F 61.5 °F 30.1 in SSO 3 mph 5.4 mph 69.8% 0 in
09:24 72.1 °F 61.5 °F 30.1 in SO 2.9 mph 6 mph 68.9% 0 in
09:29 72.3 °F 61.3 °F 30.1 in SO 3.2 mph 6.9 mph 68.4% 0 in
09:34 72.3 °F 61.2 °F 30.1 in SSO 4 mph 7.4 mph 67.9% 0 in
09:39 72.3 °F 61.2 °F 30.1 in SSO 4.3 mph 8.1 mph 68% 0 in
09:44 72.5 °F 61.3 °F 30.1 in SSO 5.4 mph 8.1 mph 68% 0 in
09:49 72.9 °F 61.5 °F 30.1 in SSO 5.3 mph 8.1 mph 67.9% 0 in
09:54 73 °F 61.3 °F 30.1 in Sur 5.2 mph 9.7 mph 67% 0 in
09:59 73.4 °F 61.7 °F 30.1 in SSO 5.3 mph 10 mph 66.8% 0 in
10:04 73.6 °F 61.7 °F 30.1 in SSO 5.4 mph 8.1 mph 66.5% 0 in
10:09 73.8 °F 61.7 °F 30.1 in SO 5.2 mph 8.1 mph 66% 0 in
10:14 73.9 °F 61.9 °F 30.1 in SO 4.3 mph 8.7 mph 66% 0 in
10:19 73.9 °F 61.9 °F 30.1 in SO 4.4 mph 9 mph 66% 0 in
10:24 74.5 °F 62.1 °F 30.1 in SO 4.7 mph 7 mph 65.2% 0 in
10:29 74.7 °F 62.1 °F 30.1 in SSO 4.5 mph 7.4 mph 64.9% 0 in
10:34 74.8 °F 61.9 °F 30.1 in SSO 4 mph 7.4 mph 64.1% 0 in
10:39 75 °F 62.1 °F 30.1 in SO 4 mph 7 mph 64.1% 0 in
10:44 75.6 °F 62.1 °F 30.1 in SSO 4 mph 8.5 mph 63% 0 in
10:49 75.7 °F 62.2 °F 30.1 in SSO 4 mph 9 mph 63% 0 in
10:54 76.1 °F 62.2 °F 30.1 in OSO 4 mph 6 mph 62.3% 0 in
10:59 76.6 °F 62.2 °F 30.1 in NO 3.5 mph 5 mph 61.2% 0 in
11:04 77.4 °F 62.6 °F 30.1 in SO 2.4 mph 5.9 mph 60.3% 0 in
11:09 77.7 °F 62.6 °F 30.1 in ONO 2.5 mph 6.2 mph 59.8% 0 in
11:14 78.3 °F 63.1 °F 30.1 in NNE 2.9 mph 6 mph 60% 0 in
11:19 79 °F 63.3 °F 30.1 in ENE 2.5 mph 5 mph 59% 0 in
11:24 79.7 °F 63.7 °F 30.1 in NE 1.4 mph 4.7 mph 57.9% 0 in
11:29 80.2 °F 63.7 °F 30.1 in Oeste 1.8 mph 5.9 mph 57% 0 in
11:34 80.1 °F 63.9 °F 30.1 in OSO 2.9 mph 6.2 mph 57.9% 0 in
11:39 80.1 °F 64 °F 30.1 in North 2.8 mph 6 mph 58.1% 0 in
11:44 80.4 °F 64.4 °F 30.1 in NNO 2.4 mph 6 mph 58% 0 in
11:49 81 °F 64.8 °F 30.1 in NNE 2.4 mph 5.9 mph 58% 0 in
11:54 81.1 °F 64.9 °F 30.1 in ENE 2.4 mph 6 mph 58% 0 in
11:59 81.7 °F 64.6 °F 30.1 in SE 2.3 mph 6.4 mph 56.5% 0 in
12:04 81.9 °F 64.4 °F 30.1 in Este 2 mph 8.1 mph 55.5% 0 in
12:09 81.7 °F 64.2 °F 30.1 in NE 2.5 mph 8 mph 55.6% 0 in
12:14 81.9 °F 63.9 °F 30.1 in NE 4.3 mph 9.2 mph 54.8% 0 in
12:19 82 °F 64.2 °F 30.1 in ENE 4.1 mph 9.2 mph 54.8% 0 in
12:24 82 °F 63.9 °F 30 in NE 3.6 mph 9 mph 54.2% 0 in
12:29 81.9 °F 63.7 °F 30 in ESE 3.7 mph 9 mph 54% 0 in
12:34 81.9 °F 63.9 °F 30 in ESE 4 mph 9.2 mph 54.4% 0 in
12:39 82 °F 64.2 °F 30 in NE 4.2 mph 10 mph 54.9% 0 in
12:44 82 °F 63.3 °F 30 in ENE 4.7 mph 10.4 mph 53% 0 in
12:49 82 °F 63.3 °F 30 in SE 4.5 mph 9 mph 53% 0 in
12:54 82.8 °F 63 °F 30 in Este 4 mph 9.2 mph 51.2% 0 in
12:59 83.1 °F 62.8 °F 30 in NE 4.3 mph 12.7 mph 50.4% 0 in
13:04 82.9 °F 63 °F 30 in NNE 5.2 mph 13 mph 51% 0 in
13:09 82.9 °F 63.5 °F 30 in NE 5.3 mph 13.8 mph 52% 0 in
13:14 82.9 °F 63.5 °F 30 in NE 5.9 mph 14 mph 51.9% 0 in
13:19 83.1 °F 64.2 °F 30 in NE 5.9 mph 12 mph 52.9% 0 in
13:24 83.3 °F 64.2 °F 30 in ENE 5.9 mph 10 mph 52.8% 0 in
13:29 83.7 °F 64 °F 30 in ENE 5.6 mph 8.1 mph 51.7% 0 in
13:34 83.8 °F 64.2 °F 30 in Este 4.7 mph 10.4 mph 51.8% 0 in
13:39 84 °F 64.8 °F 30 in NE 5.1 mph 11.5 mph 52.5% 0 in
13:44 84 °F 64.9 °F 30 in NNO 6.2 mph 12 mph 53% 0 in
13:49 84.4 °F 64.8 °F 30 in Este 5.7 mph 12.3 mph 52.1% 0 in
13:54 84.4 °F 63.5 °F 30 in Este 4 mph 14 mph 49.6% 0 in
13:59 84.4 °F 63.5 °F 30 in Este 4.7 mph 14 mph 49.5% 0 in
14:04 84.9 °F 63.3 °F 30 in ESE 6.4 mph 13.8 mph 48.6% 0 in
14:09 85.3 °F 63.5 °F 30 in Este 6.4 mph 14 mph 48.1% 0 in
14:14 85.5 °F 63.7 °F 30 in NE 6.4 mph 13.8 mph 48.3% 0 in
14:19 85.3 °F 63.7 °F 30 in NNE 6.5 mph 14 mph 48.5% 0 in
14:24 85.3 °F 63.1 °F 30 in NE 6.9 mph 12.7 mph 47.7% 0 in
14:29 85.6 °F 63.3 °F 30 in Este 6.6 mph 13 mph 47.5% 0 in
14:34 85.6 °F 63.1 °F 30 in NE 5.9 mph 11.2 mph 47.1% 0 in
14:39 85.6 °F 63.3 °F 30 in Este 5.9 mph 14 mph 47.1% 0 in
14:44 85.6 °F 63.3 °F 30 in NE 5.9 mph 14 mph 47.2% 0 in
14:49 85.6 °F 63.5 °F 30 in NE 6 mph 14 mph 47.8% 0 in
14:54 85.6 °F 64 °F 30 in Este 6.2 mph 12 mph 48.4% 0 in
14:59 85.8 °F 63.9 °F 30 in Este 6.1 mph 12 mph 48.1% 0 in
15:04 85.8 °F 63.5 °F 30 in ENE 5.9 mph 15 mph 47.3% 0 in
15:09 85.8 °F 63.3 °F 30 in Este 6.5 mph 15 mph 47% 0 in
15:14 86 °F 63.3 °F 30 in NE 8.1 mph 14 mph 46.8% 0 in
15:19 86 °F 63.1 °F 30 in ENE 7.9 mph 15 mph 46.5% 0 in
15:24 86.4 °F 63 °F 30 in ESE 7.4 mph 15 mph 45.8% 0 in
15:29 86.2 °F 62.4 °F 30 in ESE 7.1 mph 13 mph 45.1% 0 in
15:34 86.4 °F 62.2 °F 30 in Este 6.4 mph 15 mph 44.6% 0 in
15:39 86.4 °F 62.2 °F 30 in ENE 6.6 mph 17.3 mph 44.5% 0 in
15:44 86.4 °F 62.2 °F 30 in ENE 7.4 mph 17 mph 44.6% 0 in
15:49 86.5 °F 62.1 °F 30 in ENE 7.1 mph 15 mph 44% 0 in
15:54 86.4 °F 62.6 °F 30 in ENE 6.2 mph 15.2 mph 45.2% 0 in
15:59 86.4 °F 62.4 °F 30 in ENE 6.7 mph 15 mph 44.9% 0 in
16:04 86.4 °F 61.9 °F 30 in NE 8.1 mph 15.2 mph 44.3% 0 in
16:09 86 °F 61.9 °F 30 in NE 8 mph 15 mph 44.8% 0 in
16:14 86.4 °F 62.4 °F 30 in ENE 7.6 mph 15 mph 44.7% 0 in
16:19 86.9 °F 62.6 °F 30 in NE 7.3 mph 14 mph 44.4% 0 in
16:24 86.5 °F 62.6 °F 30 in NE 6.4 mph 15 mph 44.8% 0 in
16:29 86.4 °F 63 °F 30 in ENE 7.1 mph 18.4 mph 45.9% 0 in
16:34 85.8 °F 63.3 °F 30 in ENE 9.2 mph 18 mph 47.2% 0 in
16:39 86 °F 63.3 °F 30 in NE 9.1 mph 16 mph 46.8% 0 in
16:44 86.4 °F 63.1 °F 30 in NE 8.7 mph 15 mph 46% 0 in
16:49 85.8 °F 63.7 °F 30 in NE 9 mph 18.5 mph 47.6% 0 in
16:54 85.6 °F 64.8 °F 30 in ENE 10 mph 19 mph 49.9% 0 in
16:59 85.8 °F 65.3 °F 30 in NE 9.8 mph 16.1 mph 50.6% 0 in
17:04 85.6 °F 65.3 °F 30 in ENE 9.2 mph 20.1 mph 50.9% 0 in
17:09 85.6 °F 65.1 °F 30 in NE 9.3 mph 21 mph 50.5% 0 in
17:14 85.6 °F 64.9 °F 30 in NE 9.7 mph 18.4 mph 50.2% 0 in
17:19 85.6 °F 65.1 °F 30 in NE 9.7 mph 18 mph 50.2% 0 in
17:24 85.5 °F 65.5 °F 30 in NE 9.7 mph 16 mph 51.3% 0 in
17:29 85.6 °F 65.5 °F 30 in ENE 9.4 mph 15 mph 51.1% 0 in
17:34 85.6 °F 65.5 °F 30 in ENE 8.5 mph 14.7 mph 51.2% 0 in
17:39 85.5 °F 65.3 °F 30 in NE 8.4 mph 15 mph 51% 0 in
17:44 85.5 °F 65.7 °F 30 in NE 8.1 mph 15.2 mph 51.9% 0 in
17:49 84.9 °F 65.3 °F 30 in NE 8.6 mph 18.4 mph 52% 0 in
17:54 84.9 °F 65.3 °F 30 in NE 10 mph 19 mph 51.9% 0 in
17:59 84.7 °F 65.7 °F 30 in NE 10.4 mph 19 mph 53% 0 in
18:04 84.6 °F 65.5 °F 30 in ENE 11.2 mph 15 mph 53% 0 in
18:09 84.6 °F 65.5 °F 30 in ENE 10.6 mph 15 mph 53% 0 in
18:14 84.6 °F 65.8 °F 30 in NE 8.7 mph 16.3 mph 53.6% 0 in
18:19 84.6 °F 66 °F 30 in Este 8.6 mph 16 mph 54% 0 in
18:24 84.6 °F 66 °F 30 in ENE 8.5 mph 16.1 mph 53.9% 0 in
18:29 84.4 °F 65.8 °F 30 in NE 8.4 mph 16 mph 53.9% 0 in
18:34 84.4 °F 66.4 °F 30 in NE 8.1 mph 14 mph 54.7% 0 in
18:39 84 °F 66 °F 30 in NE 8 mph 13.8 mph 54.6% 0 in
18:44 83.8 °F 65.5 °F 30 in ENE 7.6 mph 15.2 mph 54% 0 in
18:49 83.8 °F 65.8 °F 30 in ENE 7.7 mph 16.1 mph 54.9% 0 in
18:54 83.7 °F 66 °F 30 in NE 8.1 mph 16 mph 55.3% 0 in
18:59 83.5 °F 66 °F 30 in ENE 8.3 mph 15 mph 55.7% 0 in
19:04 83.3 °F 66 °F 30 in Este 8.7 mph 15 mph 56% 0 in
19:09 83.3 °F 66.2 °F 30 in ENE 8.4 mph 13 mph 56.5% 0 in
19:14 83.3 °F 66.6 °F 30 in ENE 7.4 mph 12 mph 57% 0 in
19:19 83.1 °F 65.1 °F 30 in NE 7.4 mph 16.8 mph 54.7% 0 in
19:24 82.9 °F 65.3 °F 30 in NE 7.4 mph 17.3 mph 55.4% 0 in
19:29 82.8 °F 66.4 °F 30 in NE 7.7 mph 15 mph 57.7% 0 in
19:34 82.8 °F 66 °F 30 in NE 8.7 mph 16.3 mph 57% 0 in
19:39 82.6 °F 66.2 °F 30 in NE 8.7 mph 17.3 mph 57.8% 0 in
19:44 82.4 °F 66.2 °F 30 in NE 8.7 mph 17 mph 58% 0 in
19:49 82.2 °F 66.4 °F 30 in NE 8.6 mph 15 mph 58.6% 0 in
19:54 82 °F 66.7 °F 30 in NE 8.5 mph 15.2 mph 59.8% 0 in
19:59 81.9 °F 66.6 °F 30 in NE 8.6 mph 17 mph 60.3% 0 in
20:04 81.7 °F 66.7 °F 30 in NE 8.7 mph 17 mph 60.8% 0 in
20:09 81.5 °F 67.6 °F 30 in NE 8.4 mph 14 mph 62.6% 0 in
20:14 81.1 °F 67.8 °F 30 in NE 7.4 mph 15 mph 63.9% 0 in
20:19 81.1 °F 68.2 °F 30 in NE 7.3 mph 15 mph 65% 0 in
20:24 81 °F 68 °F 30 in NE 6.9 mph 15 mph 65% 0 in
20:29 80.6 °F 68.2 °F 30 in NE 7 mph 15 mph 65.9% 0 in
20:34 80.4 °F 68.2 °F 30 in NE 7.4 mph 13 mph 66.5% 0 in
20:39 80.2 °F 68.4 °F 30 in ENE 7 mph 11.5 mph 67% 0 in
20:44 80.1 °F 68.4 °F 30 in ENE 5.9 mph 12 mph 67.6% 0 in
20:49 80.1 °F 68.5 °F 30 in ENE 5.7 mph 10.4 mph 68.4% 0 in
20:54 79.7 °F 68.7 °F 30 in ENE 5.2 mph 10 mph 69.1% 0 in
20:59 79.5 °F 68.9 °F 30 in ENE 5.2 mph 10.7 mph 70% 0 in
21:04 79.3 °F 68.7 °F 30 in NE 5.2 mph 11 mph 70% 0 in
21:09 79.2 °F 68.9 °F 30 in ENE 5.2 mph 9 mph 70.9% 0 in
21:14 79.2 °F 68.9 °F 30 in ENE 5.2 mph 9.2 mph 71% 0 in
21:19 79 °F 69.1 °F 30 in ENE 5 mph 9.2 mph 71.8% 0 in
21:24 78.8 °F 69.1 °F 30 in ENE 4.7 mph 9 mph 72% 0 in
21:29 78.6 °F 68.9 °F 30 in NE 4.5 mph 8 mph 72% 0 in
21:34 78.6 °F 69.1 °F 30 in NE 4 mph 6.9 mph 72.6% 0 in
21:39 78.4 °F 69.1 °F 30 in NE 4.1 mph 7 mph 73% 0 in
21:44 78.4 °F 69.1 °F 30 in NE 4.3 mph 7 mph 73.1% 0 in
21:49 78.3 °F 69.4 °F 30 in ENE 4.2 mph 7 mph 74% 0 in
21:54 78.3 °F 69.3 °F 30 in ENE 3.6 mph 6 mph 74% 0 in
21:59 78.3 °F 69.3 °F 30 in ENE 3.2 mph 6 mph 74% 0 in
22:04 78.3 °F 69.3 °F 30 in ENE 2.4 mph 5.9 mph 74% 0 in
22:09 78.1 °F 69.1 °F 30 in Este 2.5 mph 6.9 mph 74% 0 in
22:14 77.9 °F 68.9 °F 30 in ENE 3.1 mph 7 mph 74% 0 in
22:19 77.7 °F 68.7 °F 30 in ENE 3.2 mph 7.4 mph 74% 0 in
22:24 77.7 °F 68.7 °F 30 in ENE 3.6 mph 7 mph 74% 0 in
22:29 77.5 °F 68.7 °F 30 in NE 3.5 mph 6 mph 74% 0 in
22:34 77.5 °F 68.5 °F 30 in NE 3.1 mph 7.4 mph 74% 0 in
22:39 77.5 °F 68.5 °F 30 in NE 3.4 mph 7.4 mph 74% 0 in
22:44 77.5 °F 68.5 °F 30 in NE 4.3 mph 7 mph 74% 0 in
22:49 77.5 °F 68.5 °F 30 in NE 4.3 mph 6.9 mph 74% 0 in
22:54 77.5 °F 68.5 °F 30 in NE 4.3 mph 7 mph 74% 0 in
22:59 77.4 °F 68.9 °F 30 in NE 4.2 mph 6.9 mph 75% 0 in
23:04 77.4 °F 68.7 °F 30 in NE 4 mph 7 mph 75% 0 in
23:09 77.2 °F 68.7 °F 30 in NE 4.1 mph 7.4 mph 75.3% 0 in
23:14 77 °F 68.9 °F 30 in NE 4.3 mph 7.6 mph 76% 0 in
23:19 76.8 °F 68.7 °F 30 in NE 4.5 mph 8.1 mph 76% 0 in
23:24 76.6 °F 68.5 °F 30 in NE 5.2 mph 7 mph 76% 0 in
23:29 76.6 °F 68.5 °F 30 in NE 5 mph 7 mph 76% 0 in
23:34 76.6 °F 68.9 °F 30 in NE 4.3 mph 7 mph 76.9% 0 in
23:39 76.5 °F 68.7 °F 30 in NE 4.4 mph 7 mph 77% 0 in
23:44 76.5 °F 68.7 °F 30 in NE 4.7 mph 6.2 mph 77% 0 in
23:49 76.5 °F 68.7 °F 30 in NE 4.5 mph 6.2 mph 77% 0 in
23:54 76.5 °F 68.7 °F 30 in NE 4 mph 6.2 mph 77% 0 in
23:59 76.5 °F 68.7 °F 30 in NE 4 mph 6 mph 77% 0 in
Murcia-Puente Tocinos, España
Compliments of Weather Underground - 3.5 mb

La estación de MeteoMurcia.com, publica sus datos en los siguientes proyectos:

Weather Underground PWS IMURCIAP2 Meteoclimatic www.awekas.at

W3Counter
Web Analytics